Погода Савостинона 2 недели

Смоленская область, Россия

23 мая-05 июня
  • 23мая
    Сегодня
    +8°
    +23°
    Ясно и безоблачно
    ВремяПогодаТемператураВлажностьДавлениеВетер, м/сВероятность осадков
    00:00Ясно и безоблачно+13°C51 %751 мм3.1 м/с2 %
    03:00Ясно и безоблачно+10°C54 %751 мм3.4 м/с2 %
    06:00Ясно и безоблачно+10°C59 %752 мм3.4 м/с2 %
    09:00Ясно и безоблачно+17°C50 %753 мм3.5 м/с2 %
    12:00Ясно и безоблачно+21°C35 %754 мм4.2 м/с2 %
    15:00Ясно и безоблачно+22°C34 %754 мм3.7 м/с2 %
    18:00Ясно и безоблачно+22°C35 %753 мм4.1 м/с2 %
    21:00Ясно и безоблачно+17°C49 %754 мм2.8 м/с2 %
  • 24мая
    Пятница
    +7°
    +21°
    Ясно и безоблачно
    ВремяПогодаТемператураВлажностьДавлениеВетер, м/сВероятность осадков
    00:00Ясно и безоблачно+12°C59 %755 мм2.8 м/с2 %
    03:00Ясно и безоблачно+10°C63 %756 мм2.9 м/с2 %
    06:00Ясно и безоблачно+10°C65 %757 мм2.7 м/с2 %
    09:00Ясно и безоблачно+16°C43 %758 мм3.4 м/с2 %
    12:00Ясно и безоблачно+19°C29 %758 мм5.0 м/с2 %
    15:00Ясно и безоблачно+21°C25 %757 мм4.6 м/с2 %
    18:00Ясно и безоблачно+21°C27 %756 мм3.8 м/с2 %
    21:00Ясно и безоблачно+16°C44 %756 мм2.5 м/с2 %
  • 25мая
    Суббота
    +9°
    +24°
    Ясно и безоблачно
    ВремяПогодаТемператураВлажностьДавлениеВетер, м/сВероятность осадков
    00:00Ясно и безоблачно+11°C54 %756 мм3.0 м/с2 %
    03:00Ясно и безоблачно+8°C67 %756 мм2.4 м/с2 %
    06:00Ясно и безоблачно+9°C71 %756 мм2.6 м/с2 %
    09:00Ясно и безоблачно+16°C54 %756 мм2.0 м/с2 %
    12:00Ясно и безоблачно+21°C40 %755 мм2.4 м/с2 %
    15:00Ясно и безоблачно+23°C35 %754 мм2.6 м/с2 %
    18:00Ясно и безоблачно+24°C36 %753 мм2.3 м/с2 %
    21:00Ясно и безоблачно+18°C66 %753 мм2.3 м/с2 %
  • 26мая
    Воскресенье
    +11°
    +26°
    Облачно с прояснениями
    ВремяПогодаТемператураВлажностьДавлениеВетер, м/сВероятность осадков
    00:00Ясно и безоблачно+13°C76 %753 мм2.0 м/с2 %
    03:00Ясно и безоблачно+11°C82 %752 мм2.3 м/с2 %
    06:00Ясно и безоблачно+12°C78 %753 мм2.4 м/с2 %
    09:00Ясно и безоблачно+19°C59 %753 мм1.7 м/с2 %
    12:00Небольшая облачность+24°C37 %753 мм2.3 м/с2 %
    15:00Облачно с прояснениями+25°C35 %752 мм2.6 м/с3 %
    18:00Небольшая облачность+26°C34 %752 мм2.7 м/с6 %
    21:00Ясно и безоблачно+20°C62 %752 мм2.1 м/с6 %
  • 27мая
    Понедельник
    +12°
    +24°
    Практически безоблачно
    ВремяПогодаТемператураВлажностьДавлениеВетер, м/сВероятность осадков
    00:00Практически безоблачно+16°C82 %753 мм2.4 м/с2 %
    03:00Ясно и безоблачно+13°C96 %753 мм2.3 м/с3 %
    06:00Ясно и безоблачно+14°C82 %754 мм2.9 м/с3 %
    09:00Ясно и безоблачно+19°C57 %754 мм2.7 м/с4 %
    12:00Ясно и безоблачно+23°C48 %755 мм3.1 м/с23 %
    15:00Практически безоблачно+24°C39 %754 мм2.7 м/с27 %
    18:00Ясно и безоблачно+24°C36 %753 мм2.4 м/с27 %
    21:00Ясно и безоблачно+20°C54 %753 мм2.0 м/с9 %
Мы используем cookies
Соглашаюсь